Time;durP1;ratioP1;P1;durP2;ratioP2;P2;SDS_P1;SDS_P2;PMS_P1;PMS_P2;Temp;Humidity;BMP_temperature;BMP_pressure;BME280_temperature;BME280_humidity;BME280_pressure;Samples;Min_cycle;Max_cycle;Signal;HPM_P1;HPM_P2
2022/01/29 00:02:25;;;;;;;22.48;8.05;;;6.90;99.90;;;;;;6127454;23;20033;-80
2022/01/29 00:04:51;;;;;;;29.95;8.05;;;7.00;99.90;;;;;;6127396;23;20025;-79
2022/01/29 00:07:17;;;;;;;26.92;9.38;;;7.00;99.90;;;;;;6127938;23;20053;-79
2022/01/29 00:09:47;;;;;;;29.52;8.45;;;7.10;99.90;;;;;;6127892;23;20029;-80
2022/01/29 00:12:13;;;;;;;27.30;7.70;;;7.10;99.90;;;;;;6104723;23;20089;-81
2022/01/29 00:14:39;;;;;;;29.00;8.45;;;7.10;99.90;;;;;;6104708;23;20104;-80
2022/01/29 00:17:06;;;;;;;28.17;9.25;;;7.10;99.90;;;;;;6152122;23;20033;-80
2022/01/29 00:19:32;;;;;;;25.48;8.68;;;7.10;99.90;;;;;;6151422;23;20032;-82
2022/01/29 00:22:00;;;;;;;22.33;8.85;;;7.10;99.90;;;;;;6153424;23;20018;-80
2022/01/29 00:24:25;;;;;;;24.40;8.43;;;7.20;99.90;;;;;;6130045;23;20021;-80
2022/01/29 00:26:57;;;;;;;19.67;7.28;;;7.20;99.90;;;;;;6159431;23;20069;-79
2022/01/29 00:29:34;;;;;;;24.48;8.68;;;7.20;99.90;;;;;;6160697;23;20084;-82
2022/01/29 00:32:01;;;;;;;23.27;7.78;;;7.20;99.90;;;;;;6107121;23;20024;-80
2022/01/29 00:34:27;;;;;;;28.10;8.98;;;7.20;99.90;;;;;;6155632;23;20025;-78
2022/01/29 00:36:52;;;;;;;21.70;7.57;;;7.20;99.90;;;;;;6152616;23;20040;-81
2022/01/29 00:39:18;;;;;;;30.27;8.52;;;7.20;99.90;;;;;;6153025;23;20115;-79
2022/01/29 00:41:48;;;;;;;23.85;8.77;;;7.20;99.90;;;;;;6152617;23;20030;-79
2022/01/29 00:44:15;;;;;;;33.90;8.07;;;7.20;99.90;;;;;;6128686;23;20021;-79
2022/01/29 00:46:44;;;;;;;24.88;8.63;;;7.20;99.90;;;;;;6153468;23;20036;-79
2022/01/29 00:49:12;;;;;;;25.88;8.18;;;7.30;99.90;;;;;;6128903;23;20096;-79
2022/01/29 00:52:06;;;;;;;32.53;7.82;;;7.30;99.90;;;;;;6080073;23;20022;-79
2022/01/29 00:54:31;;;;;;;23.85;9.07;;;7.30;99.90;;;;;;6099063;23;20096;-79
2022/01/29 00:57:04;;;;;;;25.55;8.48;;;7.30;99.90;;;;;;6099262;23;20037;-79
2022/01/29 00:59:31;;;;;;;20.00;8.15;;;7.30;99.90;;;;;;6100291;23;20030;-79
2022/01/29 01:01:57;;;;;;;23.83;8.50;;;7.30;99.90;;;;;;6075073;23;20018;-79
2022/01/29 01:04:30;;;;;;;28.10;7.35;;;7.40;99.90;;;;;;6099361;23;20076;-79
2022/01/29 01:07:02;;;;;;;28.52;8.68;;;7.40;99.90;;;;;;6099408;23;20054;-79
2022/01/29 01:09:27;;;;;;;28.00;8.55;;;7.40;99.90;;;;;;6124857;23;20037;-80
2022/01/29 01:11:54;;;;;;;30.88;8.02;;;7.40;99.90;;;;;;6129381;23;20058;-79
2022/01/29 01:14:19;;;;;;;31.80;8.00;;;7.50;99.90;;;;;;6106056;23;20026;-80
2022/01/29 01:16:48;;;;;;;24.40;8.02;;;7.50;99.90;;;;;;6127907;23;20077;-81
2022/01/29 01:19:14;;;;;;;30.90;8.95;;;7.50;99.90;;;;;;6125264;23;20021;-79
2022/01/29 01:21:40;;;;;;;26.05;7.32;;;7.50;99.90;;;;;;6098996;23;20339;-80
2022/01/29 01:24:06;;;;;;;28.92;8.43;;;7.50;99.90;;;;;;6075169;23;20044;-79
2022/01/29 01:26:32;;;;;;;20.90;7.68;;;7.50;99.90;;;;;;6098932;23;20021;-79
2022/01/29 01:28:58;;;;;;;26.95;8.77;;;7.50;99.90;;;;;;6099586;23;20022;-79
2022/01/29 01:31:28;;;;;;;31.77;9.10;;;7.50;99.90;;;;;;6099361;23;20026;-80
2022/01/29 01:33:54;;;;;;;31.50;8.40;;;7.50;99.90;;;;;;6099248;23;20034;-79
2022/01/29 01:36:24;;;;;;;22.98;9.10;;;7.50;99.90;;;;;;6146112;23;20076;-80
2022/01/29 01:38:56;;;;;;;29.80;9.63;;;7.50;99.90;;;;;;6154050;23;20030;-79
2022/01/29 01:41:38;;;;;;;27.65;8.70;;;7.50;99.90;;;;;;6153930;23;20048;-79
2022/01/29 01:44:15;;;;;;;31.38;8.93;;;7.50;99.90;;;;;;6131674;23;20476;-80
2022/01/29 01:46:41;;;;;;;29.73;10.05;;;7.60;99.90;;;;;;6105982;23;20087;-80
2022/01/29 01:49:07;;;;;;;27.83;8.68;;;7.60;99.90;;;;;;6156266;23;20501;-81
2022/01/29 01:51:33;;;;;;;25.05;9.57;;;7.60;99.90;;;;;;6156852;23;20393;-80
2022/01/29 01:53:59;;;;;;;26.50;9.52;;;7.60;99.90;;;;;;6155061;23;20128;-80
2022/01/29 01:56:33;;;;;;;31.57;10.97;;;7.60;99.90;;;;;;6132974;23;20061;-80
2022/01/29 01:58:58;;;;;;;28.70;10.05;;;7.60;99.90;;;;;;6133761;23;20759;-83
2022/01/29 02:01:28;;;;;;;36.95;10.73;;;7.60;99.90;;;;;;6155928;23;20025;-81
2022/01/29 02:03:58;;;;;;;33.13;10.40;;;7.60;99.90;;;;;;6129786;23;20496;-80
2022/01/29 02:06:24;;;;;;;33.20;11.95;;;7.60;99.90;;;;;;6154039;23;20482;-80
2022/01/29 02:08:58;;;;;;;32.83;10.18;;;7.60;99.90;;;;;;6153742;23;20025;-80
2022/01/29 02:11:37;;;;;;;40.47;11.32;;;7.60;99.90;;;;;;6155547;23;20456;-80
2022/01/29 02:14:09;;;;;;;34.58;10.23;;;7.60;99.90;;;;;;6129328;23;20024;-80
2022/01/29 02:16:51;;;;;;;25.35;9.93;;;7.60;99.90;;;;;;6129932;23;20492;-80
2022/01/29 02:19:23;;;;;;;32.42;11.75;;;7.60;99.90;;;;;;6154089;23;20457;-80
2022/01/29 02:21:50;;;;;;;34.47;10.40;;;7.60;99.90;;;;;;6130481;23;20033;-79
2022/01/29 02:24:17;;;;;;;25.52;10.93;;;7.60;99.90;;;;;;6156385;23;20026;-80
2022/01/29 02:26:48;;;;;;;41.80;10.57;;;7.60;99.90;;;;;;6154573;23;20024;-80
2022/01/29 02:29:15;;;;;;;38.60;11.10;;;7.60;99.90;;;;;;6129278;23;20025;-79
2022/01/29 02:31:49;;;;;;;39.85;10.10;;;7.70;99.90;;;;;;6153859;23;20487;-79
2022/01/29 02:34:16;;;;;;;32.88;11.77;;;7.70;99.90;;;;;;6153631;23;20472;-78
2022/01/29 02:36:43;;;;;;;28.73;10.43;;;7.70;99.90;;;;;;6153852;23;20029;-79
2022/01/29 02:39:13;;;;;;;36.03;10.75;;;7.70;99.90;;;;;;6129205;23;20025;-80
2022/01/29 02:41:43;;;;;;;32.25;11.73;;;7.70;99.90;;;;;;6155298;23;20030;-79
2022/01/29 02:44:17;;;;;;;31.45;11.50;;;7.70;99.90;;;;;;6088701;23;20032;-79
2022/01/29 02:49:15;;;;;;;30.38;11.27;;;7.80;99.90;;;;;;6129595;23;20025;-80
2022/01/29 02:51:55;;;;;;;32.60;11.73;;;7.80;99.90;;;;;;6129750;23;20036;-80
2022/01/29 02:54:21;;;;;;;32.08;12.45;;;7.80;99.90;;;;;;6105899;23;20168;-80
2022/01/29 02:56:48;;;;;;;34.47;12.35;;;7.80;99.90;;;;;;6155833;23;20084;-80
2022/01/29 02:59:14;;;;;;;29.73;11.25;;;7.80;99.90;;;;;;6155310;23;20049;-81
2022/01/29 03:01:43;;;;;;;31.30;13.13;;;7.80;99.90;;;;;;6153359;23;20076;-80
2022/01/29 03:04:17;;;;;;;35.90;11.63;;;7.80;99.90;;;;;;6131357;23;20021;-81
2022/01/29 03:06:45;;;;;;;39.10;11.98;;;7.80;99.90;;;;;;6153253;23;20106;-80
2022/01/29 03:09:14;;;;;;;30.58;11.63;;;7.80;99.90;;;;;;6128584;23;20112;-81
2022/01/29 03:11:40;;;;;;;38.33;12.95;;;7.80;99.90;;;;;;6153756;23;20033;-81
2022/01/29 03:14:06;;;;;;;28.30;10.45;;;7.90;99.90;;;;;;6155223;23;20026;-81
2022/01/29 03:16:32;;;;;;;34.53;12.02;;;7.90;99.90;;;;;;6153984;23;20025;-81
2022/01/29 03:18:58;;;;;;;32.60;12.07;;;7.90;99.90;;;;;;6128951;23;20084;-80
2022/01/29 03:21:23;;;;;;;38.50;12.50;;;8.00;99.90;;;;;;6154993;23;20373;-80
2022/01/29 03:23:49;;;;;;;40.67;12.85;;;8.00;99.90;;;;;;6153841;23;20033;-80
2022/01/29 03:26:18;;;;;;;32.70;12.50;;;8.00;99.90;;;;;;6158775;23;20024;-80
2022/01/29 03:28:44;;;;;;;39.97;11.90;;;8.00;99.90;;;;;;6108295;23;20095;-78
2022/01/29 03:31:11;;;;;;;35.92;12.93;;;8.00;99.90;;;;;;6158996;23;20025;-79
2022/01/29 03:33:44;;;;;;;38.22;14.68;;;8.00;99.90;;;;;;6154856;23;20028;-79
2022/01/29 03:36:13;;;;;;;31.42;12.23;;;8.00;99.90;;;;;;6104746;23;20018;-80
2022/01/29 03:38:40;;;;;;;35.22;14.02;;;8.00;99.90;;;;;;6128854;23;20101;-80
2022/01/29 03:41:07;;;;;;;32.30;13.95;;;8.00;99.90;;;;;;6132224;23;20018;-80
2022/01/29 03:43:40;;;;;;;35.22;13.10;;;8.00;99.90;;;;;;6183380;23;20025;-79
2022/01/29 03:46:06;;;;;;;32.80;13.73;;;8.10;99.90;;;;;;6135421;23;20053;-80
2022/01/29 03:48:32;;;;;;;35.60;13.10;;;8.10;99.90;;;;;;6158379;23;20021;-80
2022/01/29 03:51:01;;;;;;;32.92;13.48;;;8.10;99.90;;;;;;6157802;23;20041;-80
2022/01/29 03:53:27;;;;;;;29.90;12.60;;;8.10;99.90;;;;;;6134707;23;20021;-80
2022/01/29 03:55:53;;;;;;;32.63;13.50;;;8.00;99.90;;;;;;6133755;23;20056;-79
2022/01/29 03:58:19;;;;;;;35.47;14.40;;;8.00;99.90;;;;;;6184389;23;20028;-80
2022/01/29 04:00:45;;;;;;;33.97;12.93;;;8.00;99.90;;;;;;6157767;23;20344;-79
2022/01/29 04:03:10;;;;;;;30.85;13.45;;;8.10;99.90;;;;;;6157962;23;20167;-80
2022/01/29 04:05:37;;;;;;;32.75;13.48;;;8.10;99.90;;;;;;6157826;23;20040;-79
2022/01/29 04:08:06;;;;;;;33.53;14.95;;;8.00;99.90;;;;;;6184869;23;20092;-79
2022/01/29 04:10:32;;;;;;;34.60;15.27;;;8.10;99.90;;;;;;6110273;23;20025;-80
2022/01/29 04:12:58;;;;;;;37.03;14.70;;;8.00;99.90;;;;;;6158566;23;20026;-79
2022/01/29 04:15:24;;;;;;;32.28;14.15;;;8.10;99.90;;;;;;6162194;23;20036;-78
2022/01/29 04:17:49;;;;;;;32.88;15.35;;;8.10;99.90;;;;;;6163568;23;20029;-81
2022/01/29 04:20:15;;;;;;;32.92;14.15;;;8.10;99.90;;;;;;6191190;23;20019;-80
2022/01/29 04:22:45;;;;;;;33.75;14.27;;;8.10;99.90;;;;;;6134317;23;20025;-80
2022/01/29 04:25:10;;;;;;;34.45;14.43;;;8.10;99.90;;;;;;6109400;23;20017;-79
2022/01/29 04:27:43;;;;;;;35.28;14.20;;;8.10;99.90;;;;;;6186017;23;20469;-79
2022/01/29 04:30:30;;;;;;;32.80;14.85;;;8.10;99.90;;;;;;6159825;23;20029;-79
2022/01/29 04:33:15;;;;;;;33.40;14.80;;;8.10;99.90;;;;;;6137157;23;20017;-80
2022/01/29 04:35:41;;;;;;;31.30;14.02;;;8.10;99.90;;;;;;6159645;23;20033;-79
2022/01/29 04:38:07;;;;;;;38.28;15.52;;;8.10;99.90;;;;;;6159577;23;20017;-80
2022/01/29 04:40:46;;;;;;;33.00;14.55;;;8.10;99.90;;;;;;6160348;23;20449;-80
2022/01/29 04:43:12;;;;;;;38.05;15.40;;;8.10;99.90;;;;;;6159410;23;20467;-80
2022/01/29 04:45:41;;;;;;;30.30;15.18;;;8.10;99.90;;;;;;6159921;23;20029;-79
2022/01/29 04:48:13;;;;;;;38.78;15.60;;;8.10;99.90;;;;;;6159481;23;20068;-80
2022/01/29 04:50:40;;;;;;;35.05;16.17;;;8.20;99.90;;;;;;6160210;23;20021;-79
2022/01/29 04:53:05;;;;;;;35.75;15.48;;;8.20;99.90;;;;;;6136042;23;20021;-80
2022/01/29 04:55:32;;;;;;;34.40;14.30;;;8.20;99.90;;;;;;6160143;23;20524;-80
2022/01/29 04:57:58;;;;;;;30.77;14.68;;;8.20;99.90;;;;;;6160149;23;20021;-80
2022/01/29 05:00:25;;;;;;;30.00;15.60;;;8.20;99.90;;;;;;6161783;23;20032;-81
2022/01/29 05:02:56;;;;;;;39.28;17.05;;;8.20;99.90;;;;;;6138641;23;20029;-79
2022/01/29 05:05:22;;;;;;;34.13;16.25;;;8.20;99.90;;;;;;6187630;23;20025;-81
2022/01/29 05:07:49;;;;;;;46.13;16.52;;;8.20;99.90;;;;;;6159397;23;20052;-79
2022/01/29 05:10:15;;;;;;;29.20;14.90;;;8.20;99.90;;;;;;6159229;23;20040;-79
2022/01/29 05:12:59;;;;;;;39.35;16.58;;;8.20;99.90;;;;;;6134555;23;20021;-80
2022/01/29 05:28:58;;;;;;;31.50;15.38;;;8.20;99.90;;;;;;6138387;23;20025;-78
2022/01/29 05:31:25;;;;;;;34.88;16.75;;;8.20;99.90;;;;;;6134618;23;20043;-79
2022/01/29 05:33:51;;;;;;;39.95;16.67;;;8.20;99.90;;;;;;6110053;23;20025;-79
2022/01/29 05:36:17;;;;;;;33.72;15.43;;;8.20;99.90;;;;;;6184087;23;20143;-79
2022/01/29 05:38:43;;;;;;;30.25;16.05;;;8.20;99.90;;;;;;6158746;23;20032;-79
2022/01/29 05:41:09;;;;;;;31.65;14.90;;;8.20;99.90;;;;;;6159090;23;20383;-79
2022/01/29 05:43:38;;;;;;;32.53;16.63;;;8.30;99.90;;;;;;6155490;23;20022;-80
2022/01/29 05:46:05;;;;;;;27.98;14.43;;;8.20;99.90;;;;;;6134907;23;20414;-81
2022/01/29 05:48:34;;;;;;;32.78;14.30;;;8.20;99.90;;;;;;6154063;23;20085;-80
2022/01/29 05:51:33;;;;;;;35.42;15.60;;;8.20;99.90;;;;;;6153696;23;20025;-79
2022/01/29 05:54:07;;;;;;;26.67;15.48;;;8.30;99.90;;;;;;6103602;23;20397;-80
2022/01/29 05:56:32;;;;;;;35.97;15.33;;;8.20;99.90;;;;;;6103875;23;20022;-80
2022/01/29 05:58:58;;;;;;;32.80;15.18;;;8.30;99.90;;;;;;6102730;23;20026;-79
2022/01/29 06:01:26;;;;;;;29.13;16.10;;;8.30;99.90;;;;;;6128343;23;20032;-79
2022/01/29 06:03:52;;;;;;;31.98;15.57;;;8.30;99.90;;;;;;6080950;23;20018;-81
2022/01/29 06:06:18;;;;;;;28.85;14.93;;;8.30;99.90;;;;;;6128305;23;20033;-79
2022/01/29 06:08:44;;;;;;;38.17;15.00;;;8.40;99.90;;;;;;6128427;23;20429;-77
2022/01/29 06:11:10;;;;;;;37.22;14.88;;;8.30;99.90;;;;;;6103783;23;20068;-80
2022/01/29 06:13:36;;;;;;;27.48;13.77;;;8.30;99.90;;;;;;6127480;23;20026;-80
2022/01/29 06:16:10;;;;;;;28.33;14.45;;;8.40;99.90;;;;;;6150008;23;20025;-80
2022/01/29 06:18:37;;;;;;;26.30;13.60;;;8.30;99.90;;;;;;6103498;23;20069;-80
2022/01/29 06:21:09;;;;;;;26.27;13.48;;;8.30;99.90;;;;;;6128606;23;20025;-79
2022/01/29 06:23:37;;;;;;;30.95;14.30;;;8.30;99.90;;;;;;6128112;23;20026;-78
2022/01/29 06:26:07;;;;;;;31.85;15.10;;;8.30;99.90;;;;;;6178824;23;20032;-78
2022/01/29 06:28:34;;;;;;;28.90;14.55;;;8.30;99.90;;;;;;6153720;23;20033;-79
2022/01/29 06:30:59;;;;;;;30.65;15.55;;;8.30;99.90;;;;;;6129573;23;20148;-79
2022/01/29 06:33:26;;;;;;;30.23;14.38;;;8.30;99.90;;;;;;6129731;23;20021;-79
2022/01/29 06:35:52;;;;;;;33.45;15.32;;;8.20;99.90;;;;;;6157367;23;20473;-77
2022/01/29 06:38:21;;;;;;;33.88;16.25;;;8.30;99.90;;;;;;6158410;23;20056;-81
2022/01/29 06:40:47;;;;;;;27.52;14.88;;;8.30;99.90;;;;;;6158059;23;20018;-79
2022/01/29 06:43:13;;;;;;;29.23;15.63;;;8.30;99.90;;;;;;6153307;23;20459;-80
2022/01/29 06:45:41;;;;;;;31.98;14.25;;;8.30;99.90;;;;;;6154169;23;20021;-78
2022/01/29 06:48:08;;;;;;;29.95;15.02;;;8.30;99.90;;;;;;6153252;23;20026;-79
2022/01/29 06:50:35;;;;;;;27.13;12.93;;;8.30;99.90;;;;;;6128548;23;20095;-79
2022/01/29 06:53:01;;;;;;;31.55;14.02;;;8.30;99.90;;;;;;6153573;23;20037;-79
2022/01/29 06:55:28;;;;;;;28.85;12.65;;;8.30;99.90;;;;;;6129961;23;20341;-79
2022/01/29 06:57:53;;;;;;;24.70;13.75;;;8.40;99.90;;;;;;6153610;23;20064;-80
2022/01/29 07:00:19;;;;;;;26.10;13.07;;;8.30;99.90;;;;;;6153142;23;20056;-80
2022/01/29 07:02:45;;;;;;;33.03;14.23;;;8.40;99.90;;;;;;6153505;23;20092;-80
2022/01/29 07:05:12;;;;;;;29.08;13.23;;;8.40;99.90;;;;;;6155248;23;20032;-80
2022/01/29 07:07:38;;;;;;;32.17;14.40;;;8.40;99.90;;;;;;6154920;23;20362;-79
2022/01/29 07:10:07;;;;;;;31.67;13.32;;;8.40;99.90;;;;;;6128500;23;20025;-80
2022/01/29 07:12:35;;;;;;;26.02;12.82;;;8.40;99.90;;;;;;6105363;23;20067;-79
2022/01/29 07:15:01;;;;;;;30.67;13.55;;;8.40;99.90;;;;;;6153375;23;20032;-79
2022/01/29 07:17:27;;;;;;;31.20;12.32;;;8.40;99.90;;;;;;6177890;23;20096;-79
2022/01/29 07:19:53;;;;;;;26.80;13.23;;;8.40;99.90;;;;;;6128829;23;20036;-80
2022/01/29 07:22:25;;;;;;;25.83;11.18;;;8.40;99.90;;;;;;6155281;23;20025;-79
2022/01/29 07:24:51;;;;;;;25.42;11.32;;;8.40;99.90;;;;;;6107233;23;20029;-80
2022/01/29 07:27:17;;;;;;;32.97;12.57;;;8.40;99.90;;;;;;6159699;23;20024;-81
2022/01/29 07:29:43;;;;;;;36.75;14.23;;;8.40;99.90;;;;;;6158055;23;20331;-80
2022/01/29 07:32:10;;;;;;;30.38;13.20;;;8.40;99.90;;;;;;6154151;23;20368;-80
2022/01/29 07:34:36;;;;;;;26.00;11.45;;;8.40;99.90;;;;;;6153523;23;20137;-79
2022/01/29 07:37:02;;;;;;;34.67;11.82;;;8.40;99.90;;;;;;6153284;23;20021;-81
2022/01/29 07:39:29;;;;;;;26.30;11.43;;;8.40;99.90;;;;;;6153467;23;20025;-81
2022/01/29 07:41:55;;;;;;;26.85;10.63;;;8.40;99.90;;;;;;6153418;23;20025;-80
2022/01/29 07:44:22;;;;;;;26.90;10.93;;;8.50;99.90;;;;;;6154209;23;20025;-79
2022/01/29 07:46:53;;;;;;;24.75;11.23;;;8.40;99.90;;;;;;6128364;23;20018;-80
2022/01/29 07:49:19;;;;;;;28.30;10.73;;;8.40;99.90;;;;;;6128988;23;20061;-80
2022/01/29 07:51:53;;;;;;;25.85;10.15;;;8.50;99.90;;;;;;6153122;23;20021;-80
2022/01/29 07:54:18;;;;;;;22.95;10.00;;;8.40;99.90;;;;;;6153536;23;20488;-79
2022/01/29 07:56:44;;;;;;;24.60;11.10;;;8.40;99.90;;;;;;6153902;23;20025;-80
2022/01/29 07:59:10;;;;;;;27.15;9.85;;;8.40;99.90;;;;;;6155452;23;20099;-80
2022/01/29 08:01:36;;;;;;;25.85;11.10;;;8.40;99.90;;;;;;6154741;23;20022;-80
2022/01/29 08:04:14;;;;;;;24.23;9.40;;;8.40;99.90;;;;;;6154985;23;20084;-79
2022/01/29 08:06:40;;;;;;;29.67;9.38;;;8.40;99.90;;;;;;6153765;23;20025;-80
2022/01/29 08:09:13;;;;;;;23.17;8.70;;;8.40;99.90;;;;;;6156484;23;20033;-80
2022/01/29 08:11:39;;;;;;;25.05;9.23;;;8.40;99.90;;;;;;6155700;23;20032;-79
2022/01/29 08:14:05;;;;;;;25.65;9.90;;;8.40;99.90;;;;;;6156240;23;20021;-80
2022/01/29 08:16:40;;;;;;;26.95;9.02;;;8.40;99.90;;;;;;6135582;23;20021;-79
2022/01/29 08:19:08;;;;;;;21.88;8.77;;;8.40;99.90;;;;;;6135757;23;20437;-80
2022/01/29 08:21:38;;;;;;;21.25;9.30;;;8.40;99.90;;;;;;6084401;23;20025;-77
2022/01/29 08:24:06;;;;;;;23.02;8.80;;;8.40;99.90;;;;;;6106211;23;20453;-78
2022/01/29 08:26:32;;;;;;;20.42;8.70;;;8.40;99.90;;;;;;6154900;23;20477;-81
2022/01/29 08:29:05;;;;;;;20.60;7.78;;;8.40;99.90;;;;;;6129524;23;20036;-78
2022/01/29 08:31:35;;;;;;;16.52;7.50;;;8.50;99.90;;;;;;6130313;23;20064;-79
2022/01/29 08:34:01;;;;;;;29.90;9.25;;;8.50;99.90;;;;;;6105387;23;20032;-79
2022/01/29 08:36:28;;;;;;;17.98;6.82;;;8.60;99.90;;;;;;6154308;23;20021;-79
2022/01/29 08:38:53;;;;;;;20.23;7.43;;;8.60;99.90;;;;;;6153580;23;20040;-79
2022/01/29 08:41:24;;;;;;;20.83;6.88;;;8.60;99.90;;;;;;6123755;23;20022;-79
2022/01/29 08:43:51;;;;;;;18.98;8.40;;;8.70;99.90;;;;;;6046929;23;20030;-80
2022/01/29 08:46:17;;;;;;;17.20;7.07;;;8.70;99.90;;;;;;6071033;23;20025;-81
2022/01/29 08:48:47;;;;;;;20.38;6.07;;;8.80;99.90;;;;;;6046091;23;20113;-80
2022/01/29 08:51:16;;;;;;;16.67;6.90;;;8.80;99.90;;;;;;6047238;23;20030;-79
2022/01/29 08:53:41;;;;;;;22.83;7.20;;;8.80;99.90;;;;;;6047418;23;20026;-79
2022/01/29 08:56:08;;;;;;;15.52;6.55;;;8.80;99.90;;;;;;6076047;23;20019;-80
2022/01/29 08:58:33;;;;;;;15.13;5.22;;;8.80;99.90;;;;;;6048208;23;20093;-79
2022/01/29 09:01:00;;;;;;;15.02;6.63;;;8.90;99.90;;;;;;6046881;23;20026;-80
2022/01/29 09:03:26;;;;;;;21.67;7.57;;;8.80;99.90;;;;;;6047240;23;20054;-81
2022/01/29 09:05:53;;;;;;;18.35;6.30;;;8.90;99.90;;;;;;6095013;23;20028;-80
2022/01/29 09:08:20;;;;;;;18.90;6.35;;;8.80;99.90;;;;;;6070898;23;20026;-80
2022/01/29 09:10:47;;;;;;;20.58;7.18;;;8.80;99.90;;;;;;6047197;23;20023;-79
2022/01/29 09:13:15;;;;;;;16.40;7.15;;;8.80;99.90;;;;;;6070313;23;20030;-80
2022/01/29 09:15:41;;;;;;;20.13;6.07;;;8.80;99.90;;;;;;6047247;23;20018;-81
2022/01/29 09:18:06;;;;;;;19.75;6.78;;;8.80;99.90;;;;;;6055600;23;20021;-80
2022/01/29 09:20:32;;;;;;;18.80;6.55;;;8.90;99.90;;;;;;6125050;23;20501;-81
2022/01/29 09:22:58;;;;;;;21.80;5.70;;;8.90;99.90;;;;;;6126169;23;20022;-81
2022/01/29 09:25:27;;;;;;;17.38;6.45;;;8.90;99.90;;;;;;6100639;23;20128;-80
2022/01/29 09:28:05;;;;;;;14.88;6.00;;;8.90;99.90;;;;;;6053642;23;20173;-80
2022/01/29 09:30:32;;;;;;;20.98;6.43;;;8.90;99.90;;;;;;6103497;23;20470;-80
2022/01/29 09:32:58;;;;;;;16.95;5.80;;;9.00;99.90;;;;;;6124815;23;20437;-81
2022/01/29 09:35:25;;;;;;;23.83;5.47;;;9.00;99.90;;;;;;6149594;23;20022;-80
2022/01/29 09:37:55;;;;;;;14.65;5.50;;;9.00;99.90;;;;;;6100770;23;20026;-80
2022/01/29 09:40:21;;;;;;;18.15;5.15;;;9.00;99.90;;;;;;6126372;23;20060;-80
2022/01/29 09:42:50;;;;;;;17.17;5.25;;;9.00;99.90;;;;;;6141299;23;20349;-80
2022/01/29 09:45:19;;;;;;;22.08;6.75;;;9.00;99.90;;;;;;6130462;23;20021;-81
2022/01/29 09:47:47;;;;;;;13.23;5.18;;;9.10;99.90;;;;;;6106828;23;20350;-80
2022/01/29 09:50:17;;;;;;;10.45;3.67;;;9.00;99.90;;;;;;6158367;23;20032;-81
2022/01/29 09:52:45;;;;;;;15.38;4.00;;;9.00;99.90;;;;;;6135697;23;20021;-81
2022/01/29 09:55:11;;;;;;;16.23;4.88;;;9.10;99.90;;;;;;6133340;23;20026;-81
2022/01/29 09:57:37;;;;;;;27.30;7.07;;;9.10;99.90;;;;;;6153971;23;20029;-80
2022/01/29 10:00:05;;;;;;;21.92;5.38;;;9.10;99.90;;;;;;6156151;23;20025;-80
2022/01/29 10:02:32;;;;;;;16.05;5.75;;;9.10;99.90;;;;;;6129574;23;20449;-81
2022/01/29 10:04:58;;;;;;;19.75;4.53;;;9.10;99.90;;;;;;6105712;23;20025;-79
2022/01/29 10:07:27;;;;;;;14.10;3.95;;;9.10;99.90;;;;;;6130167;23;20026;-81
2022/01/29 10:09:54;;;;;;;17.52;3.75;;;9.10;99.90;;;;;;6129337;23;20029;-80
2022/01/29 10:12:26;;;;;;;23.73;4.13;;;9.20;99.90;;;;;;6129405;23;20026;-81
2022/01/29 10:15:17;;;;;;;17.83;4.10;;;9.20;99.90;;;;;;6154078;23;20061;-81
2022/01/29 10:18:04;;;;;;;11.63;3.58;;;9.20;99.90;;;;;;6105371;23;20067;-81
2022/01/29 10:20:31;;;;;;;10.30;3.33;;;9.20;99.90;;;;;;6146758;23;20049;-80
2022/01/29 10:23:00;;;;;;;13.35;4.20;;;9.30;99.90;;;;;;6155093;23;20025;-79
2022/01/29 10:25:32;;;;;;;10.65;3.33;;;9.30;99.90;;;;;;6154001;23;20017;-80
2022/01/29 10:28:05;;;;;;;16.73;3.33;;;9.30;99.90;;;;;;6155204;23;20396;-81
2022/01/29 10:30:31;;;;;;;14.40;3.72;;;9.30;99.90;;;;;;6154264;23;20025;-80
2022/01/29 10:33:34;;;;;;;11.85;2.67;;;9.30;99.90;;;;;;6154416;23;20026;-81
2022/01/29 10:36:16;;;;;;;12.90;2.83;;;9.30;99.90;;;;;;6206162;23;20021;-81
2022/01/29 10:38:53;;;;;;;18.45;3.75;;;9.30;99.90;;;;;;6158763;23;20055;-81
2022/01/29 10:41:21;;;;;;;14.27;3.50;;;9.30;99.90;;;;;;6160462;23;20023;-80
2022/01/29 10:43:54;;;;;;;14.43;3.33;;;9.30;99.90;;;;;;6156539;23;20093;-80
2022/01/29 10:46:29;;;;;;;13.82;2.97;;;9.30;99.90;;;;;;6153257;23;20093;-80
2022/01/29 10:49:05;;;;;;;19.20;3.15;;;9.40;99.90;;;;;;6128836;23;20401;-81
2022/01/29 10:51:34;;;;;;;17.45;4.70;;;9.40;99.90;;;;;;6130444;23;20021;-81
2022/01/29 10:54:19;;;;;;;12.43;3.13;;;9.40;99.90;;;;;;6129024;23;20026;-80
2022/01/29 10:56:53;;;;;;;10.88;2.75;;;9.50;99.90;;;;;;6104576;23;20028;-80
2022/01/29 10:59:24;;;;;;;10.95;3.22;;;9.50;99.90;;;;;;6153594;23;20755;-80
2022/01/29 11:02:13;;;;;;;10.07;2.35;;;9.40;99.90;;;;;;6153307;23;20418;-80
2022/01/29 11:04:43;;;;;;;10.93;3.10;;;9.50;99.90;;;;;;6153109;23;20018;-80
2022/01/29 11:07:17;;;;;;;13.52;3.17;;;9.50;99.90;;;;;;6153678;23;20033;-81
2022/01/29 11:09:58;;;;;;;13.88;3.55;;;9.50;99.90;;;;;;6128658;23;20036;-79
2022/01/29 11:12:26;;;;;;;12.10;2.75;;;9.50;99.90;;;;;;6129708;23;20017;-80
2022/01/29 11:14:59;;;;;;;8.25;2.83;;;9.50;99.90;;;;;;6081708;23;20036;-81
2022/01/29 11:17:29;;;;;;;12.32;3.25;;;9.60;99.90;;;;;;6155607;23;20021;-80
2022/01/29 11:19:55;;;;;;;14.90;3.17;;;9.60;99.90;;;;;;6153860;23;20025;-80
2022/01/29 11:22:35;;;;;;;13.10;3.42;;;9.60;99.90;;;;;;6155448;23;20026;-81
2022/01/29 11:25:11;;;;;;;16.52;3.13;;;9.60;99.90;;;;;;6154262;23;20076;-82
2022/01/29 11:27:38;;;;;;;15.70;3.17;;;9.60;99.90;;;;;;6126790;23;20025;-79
2022/01/29 11:30:12;;;;;;;17.52;4.75;;;9.60;99.90;;;;;;6161765;23;20026;-80
2022/01/29 11:32:43;;;;;;;17.10;3.13;;;9.60;99.90;;;;;;6130116;23;20590;-80
2022/01/29 11:35:17;;;;;;;24.30;3.70;;;9.70;99.90;;;;;;6128273;23;20461;-81
2022/01/29 11:38:06;;;;;;;11.10;2.63;;;9.70;99.90;;;;;;6155770;23;20345;-80
2022/01/29 11:40:38;;;;;;;13.18;2.42;;;9.80;99.90;;;;;;6129048;23;20036;-80
2022/01/29 11:43:19;;;;;;;10.10;4.07;;;9.80;99.90;;;;;;6152296;23;20472;-81
2022/01/29 11:46:04;;;;;;;11.60;4.55;;;9.80;99.90;;;;;;6152073;23;20393;-80
2022/01/29 11:48:50;;;;;;;9.90;2.63;;;9.90;99.90;;;;;;6128097;23;20056;-80
2022/01/29 11:51:46;;;;;;;11.30;3.35;;;9.90;99.90;;;;;;6152185;23;20022;-81
2022/01/29 11:54:25;;;;;;;12.68;2.67;;;10.00;99.90;;;;;;6153553;23;20450;-80
2022/01/29 11:57:19;;;;;;;17.30;3.25;;;10.00;99.90;;;;;;6105475;23;20025;-81
2022/01/29 11:59:48;;;;;;;9.18;2.67;;;10.10;99.90;;;;;;6153313;23;20416;-79
2022/01/29 12:02:14;;;;;;;8.40;3.05;;;10.20;99.90;;;;;;6156100;23;20030;-79
2022/01/29 12:04:49;;;;;;;17.70;3.15;;;10.30;99.90;;;;;;6153681;23;20075;-80
2022/01/29 12:10:16;;;;;;;11.88;2.75;;;10.60;99.90;;;;;;6129441;23;20031;-81
2022/01/29 12:12:45;;;;;;;24.80;3.67;;;10.60;99.90;;;;;;6152633;23;20440;-81
2022/01/29 12:15:21;;;;;;;13.48;2.50;;;10.70;99.90;;;;;;6128425;23;20358;-80
2022/01/29 12:17:59;;;;;;;16.80;3.08;;;10.80;99.90;;;;;;6128540;23;20101;-80
2022/01/29 12:20:28;;;;;;;14.48;3.30;;;10.70;99.90;;;;;;6082797;23;20029;-78
2022/01/29 12:23:00;;;;;;;11.60;3.03;;;10.90;99.90;;;;;;6104867;23;20393;-79
2022/01/29 12:25:28;;;;;;;16.08;3.50;;;10.90;99.90;;;;;;6129112;23;20465;-80
2022/01/29 12:28:07;;;;;;;12.05;2.90;;;10.90;99.90;;;;;;6153872;23;20346;-81
2022/01/29 12:30:43;;;;;;;15.73;3.53;;;10.90;99.90;;;;;;6183204;23;20112;-80
2022/01/29 12:33:16;;;;;;;13.73;2.83;;;10.80;99.90;;;;;;6159118;23;20017;-81
2022/01/29 12:35:45;;;;;;;17.88;2.65;;;10.60;99.90;;;;;;6158082;23;20032;-80
2022/01/29 12:38:32;;;;;;;15.20;3.45;;;10.40;99.90;;;;;;6129036;23;20043;-80
2022/01/29 12:41:37;;;;;;;11.18;2.85;;;10.30;99.90;;;;;;6155307;23;20022;-80
2022/01/29 12:44:10;;;;;;;13.65;3.15;;;10.30;99.90;;;;;;6102874;23;20124;-79
2022/01/29 12:46:40;;;;;;;12.35;2.42;;;10.20;99.90;;;;;;6128827;23;20032;-78
2022/01/29 12:49:10;;;;;;;14.13;3.13;;;10.30;99.90;;;;;;6130426;23;20021;-79
2022/01/29 12:51:52;;;;;;;11.85;2.30;;;10.40;99.90;;;;;;6129945;23;20025;-80
2022/01/29 12:54:18;;;;;;;11.73;2.15;;;10.40;99.90;;;;;;6154821;23;20540;-79
2022/01/29 12:56:47;;;;;;;15.20;2.63;;;10.40;99.90;;;;;;6154527;23;20469;-79
2022/01/29 12:59:14;;;;;;;13.35;2.45;;;10.50;99.90;;;;;;6154965;23;20025;-80
2022/01/29 13:01:44;;;;;;;12.50;2.10;;;10.70;99.90;;;;;;6153680;23;20017;-79
2022/01/29 13:04:13;;;;;;;8.93;1.92;;;10.80;99.90;;;;;;6156219;23;20025;-79
2022/01/29 13:06:39;;;;;;;9.88;2.40;;;10.90;99.90;;;;;;6154438;23;20449;-80
2022/01/29 13:09:23;;;;;;;10.02;3.15;;;11.30;99.90;;;;;;6154225;23;20028;-80
2022/01/29 13:12:32;;;;;;;10.32;2.10;;;11.60;99.90;;;;;;6130043;23;20472;-79
2022/01/29 13:14:58;;;;;;;12.85;3.58;;;11.90;99.90;;;;;;6103734;23;20413;-80